createdAt,value
2017-12-09T00:00:20.755Z,3.42
2017-12-09T00:00:46.872Z,3.4
2017-12-09T00:01:13.000Z,3.5
2017-12-09T00:01:39.136Z,3.44
2017-12-09T00:02:05.247Z,3.42
2017-12-09T00:02:31.362Z,3.34
2017-12-09T00:02:57.485Z,3.42
2017-12-09T00:03:23.580Z,3.47
2017-12-09T00:03:49.697Z,3.4
2017-12-09T00:04:15.833Z,3.48
2017-12-09T00:04:41.959Z,3.48
2017-12-09T00:05:08.093Z,3.48
2017-12-09T00:05:34.211Z,3.5
2017-12-09T00:06:00.360Z,3.5
2017-12-09T00:06:26.441Z,3.44
2017-12-09T00:06:52.580Z,3.42
2017-12-09T00:07:18.690Z,3.41
2017-12-09T00:07:44.826Z,3.42
2017-12-09T00:08:10.932Z,3.45
2017-12-09T00:08:37.046Z,3.42
2017-12-09T00:09:03.157Z,3.44
2017-12-09T00:09:29.269Z,3.44
2017-12-09T00:09:55.382Z,3.53
2017-12-09T00:10:21.520Z,3.45
2017-12-09T00:10:47.635Z,3.5
2017-12-09T00:11:13.756Z,3.48
2017-12-09T00:11:40.062Z,3.58
2017-12-09T00:12:06.153Z,3.41
2017-12-09T00:12:32.265Z,3.42
2017-12-09T00:12:58.382Z,3.45
2017-12-09T00:13:24.494Z,3.5
2017-12-09T00:13:50.614Z,3.44
2017-12-09T00:14:16.747Z,3.4
2017-12-09T00:14:42.870Z,3.23
2017-12-09T00:15:08.984Z,3.25
2017-12-09T00:15:35.095Z,3.25
2017-12-09T00:16:01.201Z,3.22
2017-12-09T00:16:27.308Z,3.26
2017-12-09T00:16:53.444Z,3.32
2017-12-09T00:17:19.552Z,3.37
2017-12-09T00:17:45.696Z,3.4
2017-12-09T00:18:11.828Z,3.36
2017-12-09T00:18:37.937Z,3.34
2017-12-09T00:19:04.047Z,3.25
2017-12-09T00:19:30.229Z,3.23
2017-12-09T00:19:56.364Z,3.22
2017-12-09T00:20:22.453Z,3.23
2017-12-09T00:20:48.570Z,3.28
2017-12-09T00:21:14.679Z,3.21
2017-12-09T00:21:40.797Z,3.1
2017-12-09T00:22:06.904Z,3.19
2017-12-09T00:22:33.015Z,3.28
2017-12-09T00:22:59.158Z,3.16
2017-12-09T00:23:25.263Z,3.19
2017-12-09T00:23:51.381Z,3.14
2017-12-09T00:24:17.495Z,3.18
2017-12-09T00:24:43.603Z,3.18
2017-12-09T00:25:09.744Z,3.14
2017-12-09T00:25:35.832Z,3.26
2017-12-09T00:26:01.961Z,3.21
2017-12-09T00:26:28.073Z,3.18
2017-12-09T00:26:54.192Z,3.22
2017-12-09T00:27:20.517Z,3.18
2017-12-09T00:27:46.626Z,3.28
2017-12-09T00:28:12.740Z,3.21
2017-12-09T00:28:38.851Z,3.21
2017-12-09T00:29:04.969Z,3.26
2017-12-09T00:29:31.087Z,3.18
2017-12-09T00:29:57.199Z,3.22
2017-12-09T00:30:23.302Z,3.21
2017-12-09T00:30:49.418Z,3.23
2017-12-09T00:31:15.534Z,3.19
2017-12-09T00:31:41.651Z,3.23
2017-12-09T00:32:07.764Z,3.28
2017-12-09T00:32:33.874Z,3.14
2017-12-09T00:32:59.989Z,3.22
2017-12-09T00:33:26.102Z,3.18
2017-12-09T00:33:52.214Z,3.19
2017-12-09T00:34:18.331Z,3.21
2017-12-09T00:34:44.444Z,3.23
2017-12-09T00:35:10.554Z,3.26
2017-12-09T00:35:36.668Z,3.25
2017-12-09T00:36:02.778Z,3.34
2017-12-09T00:36:28.897Z,3.4
2017-12-09T00:36:55.011Z,3.42
2017-12-09T00:37:21.117Z,3.4
2017-12-09T00:37:47.230Z,3.29
2017-12-09T00:38:13.358Z,3.44
2017-12-09T00:38:39.469Z,3.37
2017-12-09T00:39:05.603Z,3.4
2017-12-09T00:39:31.720Z,3.25
2017-12-09T00:39:57.827Z,3.31
2017-12-09T00:40:23.940Z,3.21
2017-12-09T00:40:50.050Z,3.21
2017-12-09T00:41:16.163Z,3.19
2017-12-09T00:41:42.274Z,3.25
2017-12-09T00:42:08.408Z,3.13
2017-12-09T00:42:34.517Z,3.32
2017-12-09T00:43:00.635Z,3.21
2017-12-09T00:43:26.765Z,3.23
2017-12-09T00:43:52.880Z,3.25
2017-12-09T00:44:18.995Z,3.18
2017-12-09T00:44:45.106Z,3.21
2017-12-09T00:45:11.237Z,3.22
2017-12-09T00:45:37.354Z,3.19
2017-12-09T00:46:03.467Z,3.23
2017-12-09T00:46:29.575Z,3.28
2017-12-09T00:46:55.711Z,3.4
2017-12-09T00:47:21.834Z,3.5
2017-12-09T00:47:47.951Z,3.56
2017-12-09T00:48:14.062Z,3.65
2017-12-09T00:48:40.169Z,3.86
2017-12-09T00:49:06.309Z,3.98
2017-12-09T00:49:32.423Z,3.96
2017-12-09T00:49:58.552Z,3.94
2017-12-09T00:50:24.665Z,3.98
2017-12-09T00:50:50.804Z,4.1
2017-12-09T00:51:16.916Z,4.16
2017-12-09T00:51:43.032Z,4.13
2017-12-09T00:52:09.148Z,4.23
2017-12-09T00:52:35.268Z,4.28
2017-12-09T00:53:01.380Z,4.22
2017-12-09T00:53:27.488Z,4.13
2017-12-09T00:53:53.620Z,4.19
2017-12-09T00:54:19.739Z,4.28
2017-12-09T00:54:45.848Z,4.22
2017-12-09T00:55:11.964Z,4.32
2017-12-09T00:55:38.097Z,4.37
2017-12-09T00:56:04.206Z,4.2
2017-12-09T00:56:30.326Z,4.08
2017-12-09T00:56:56.445Z,4.13
2017-12-09T00:57:22.554Z,4.19
2017-12-09T00:57:48.671Z,4.37
2017-12-09T00:58:14.793Z,4.32
2017-12-09T00:58:40.910Z,4.38
2017-12-09T00:59:07.045Z,4.49
2017-12-09T00:59:33.157Z,4.52
2017-12-09T00:59:59.281Z,4.48
2017-12-09T01:00:25.433Z,4.67
2017-12-09T01:00:51.580Z,4.52
2017-12-09T01:01:17.671Z,4.52
2017-12-09T01:01:43.786Z,4.32
2017-12-09T01:02:09.898Z,4.44
2017-12-09T01:02:36.006Z,4.31
2017-12-09T01:03:02.123Z,4.4
2017-12-09T01:03:28.235Z,4.45
2017-12-09T01:03:54.345Z,4.45
2017-12-09T01:04:20.459Z,4.42
2017-12-09T01:04:46.575Z,4.5
2017-12-09T01:05:12.730Z,4.45
2017-12-09T01:05:38.868Z,4.45
2017-12-09T01:06:04.956Z,4.41
2017-12-09T01:06:31.064Z,4.37
2017-12-09T01:06:57.185Z,4.31
2017-12-09T01:07:23.296Z,4.35
2017-12-09T01:07:49.417Z,4.3
2017-12-09T01:08:15.532Z,4.37
2017-12-09T01:08:41.668Z,4.44
2017-12-09T01:09:07.799Z,4.42
2017-12-09T01:09:33.911Z,4.5
2017-12-09T01:10:00.029Z,4.35
2017-12-09T01:10:26.147Z,4.4
2017-12-09T01:10:52.256Z,4.37
2017-12-09T01:11:18.367Z,4.41
2017-12-09T01:11:44.482Z,4.26
2017-12-09T01:12:10.600Z,4.26
2017-12-09T01:12:36.709Z,4.05
2017-12-09T01:13:02.841Z,4.04
2017-12-09T01:13:28.973Z,4.06
2017-12-09T01:13:55.093Z,4.12
2017-12-09T01:14:21.201Z,4.13
2017-12-09T01:14:47.315Z,4.06
2017-12-09T01:15:13.431Z,4.1
2017-12-09T01:15:39.545Z,4.05
2017-12-09T01:16:05.654Z,3.91
2017-12-09T01:16:31.766Z,3.86
2017-12-09T01:16:57.884Z,3.88
2017-12-09T01:17:24.003Z,3.86
2017-12-09T01:17:50.113Z,3.87
2017-12-09T01:18:16.240Z,3.86
2017-12-09T01:18:42.357Z,3.74
2017-12-09T01:19:08.458Z,3.7
2017-12-09T01:19:34.576Z,3.76
2017-12-09T01:20:00.689Z,3.69
2017-12-09T01:20:26.804Z,3.68
2017-12-09T01:20:52.917Z,3.68
2017-12-09T01:21:19.026Z,3.7
2017-12-09T01:21:45.142Z,3.66
2017-12-09T01:22:11.252Z,3.62
2017-12-09T01:22:37.363Z,3.77
2017-12-09T01:23:03.507Z,3.77
2017-12-09T01:23:29.617Z,3.76
2017-12-09T01:23:55.737Z,3.69
2017-12-09T01:24:21.880Z,3.77
2017-12-09T01:24:47.969Z,3.63
2017-12-09T01:25:14.104Z,3.69
2017-12-09T01:25:40.216Z,3.66
2017-12-09T01:26:06.332Z,3.74
2017-12-09T01:26:32.449Z,3.66
2017-12-09T01:26:58.564Z,3.65
2017-12-09T01:27:24.675Z,3.77
2017-12-09T01:27:50.788Z,3.66
2017-12-09T01:28:16.908Z,3.65
2017-12-09T01:28:43.013Z,3.58
2017-12-09T01:29:09.130Z,3.69
2017-12-09T01:29:35.249Z,3.66
2017-12-09T01:30:01.360Z,3.62
2017-12-09T01:30:27.469Z,3.65
2017-12-09T01:30:53.588Z,3.73
2017-12-09T01:31:19.724Z,3.65
2017-12-09T01:31:45.834Z,3.68
2017-12-09T01:32:11.952Z,3.65
2017-12-09T01:32:38.062Z,3.65
2017-12-09T01:33:04.170Z,3.66
2017-12-09T01:33:30.286Z,3.63
2017-12-09T01:33:56.394Z,3.68
2017-12-09T01:34:22.515Z,3.59
2017-12-09T01:34:48.629Z,3.62
2017-12-09T01:35:14.737Z,3.56
2017-12-09T01:35:40.854Z,3.51
2017-12-09T01:36:06.970Z,3.5
2017-12-09T01:36:33.099Z,3.53
2017-12-09T01:36:59.212Z,3.53
2017-12-09T01:37:25.346Z,3.51
2017-12-09T01:37:51.460Z,3.58
2017-12-09T01:38:17.572Z,3.56
2017-12-09T01:38:43.692Z,3.59
2017-12-09T01:39:09.803Z,3.55
2017-12-09T01:39:35.910Z,3.51
2017-12-09T01:40:02.028Z,3.44
2017-12-09T01:40:28.139Z,3.51
2017-12-09T01:40:54.248Z,3.45
2017-12-09T01:41:20.368Z,3.58
2017-12-09T01:41:46.481Z,3.51
2017-12-09T01:42:12.588Z,3.53
2017-12-09T01:42:38.699Z,3.62
2017-12-09T01:43:04.814Z,3.58
2017-12-09T01:43:30.935Z,3.59
2017-12-09T01:43:57.066Z,3.53
2017-12-09T01:44:23.184Z,3.66
2017-12-09T01:44:49.293Z,3.56
2017-12-09T01:45:15.428Z,3.42
2017-12-09T01:45:41.535Z,3.41
2017-12-09T01:46:07.650Z,3.48
2017-12-09T01:46:33.765Z,3.41
2017-12-09T01:46:59.871Z,3.4
2017-12-09T01:47:25.989Z,3.34
2017-12-09T01:47:52.098Z,3.44
2017-12-09T01:48:18.215Z,3.41
2017-12-09T01:48:44.331Z,3.4
2017-12-09T01:49:10.439Z,3.36
2017-12-09T01:49:36.550Z,3.23
2017-12-09T01:50:02.667Z,3.41
2017-12-09T01:50:28.783Z,3.42
2017-12-09T01:50:54.893Z,3.41
2017-12-09T01:51:21.013Z,3.4
2017-12-09T01:51:47.118Z,3.44
2017-12-09T01:52:13.236Z,3.34
2017-12-09T01:52:39.343Z,3.4
2017-12-09T01:53:05.459Z,3.4
2017-12-09T01:53:31.569Z,3.41
2017-12-09T01:53:57.678Z,3.45
2017-12-09T01:54:23.792Z,3.41
2017-12-09T01:54:49.909Z,3.4
2017-12-09T01:55:16.019Z,3.41
2017-12-09T01:55:42.135Z,3.41
2017-12-09T01:56:08.244Z,3.37
2017-12-09T01:56:34.357Z,3.48
2017-12-09T01:57:00.478Z,3.5
2017-12-09T01:57:26.598Z,3.37
2017-12-09T01:57:52.713Z,3.45
2017-12-09T01:58:18.827Z,3.44
2017-12-09T01:58:44.935Z,3.53
2017-12-09T01:59:11.050Z,3.55
2017-12-09T01:59:37.182Z,3.5
2017-12-09T02:00:03.291Z,3.51
2017-12-09T02:00:29.405Z,3.5
2017-12-09T02:00:55.538Z,3.47
2017-12-09T02:01:21.655Z,3.44
2017-12-09T02:01:47.773Z,3.51
2017-12-09T02:02:13.882Z,3.5
2017-12-09T02:02:39.994Z,3.41
2017-12-09T02:03:06.112Z,3.42
2017-12-09T02:03:32.228Z,3.42
2017-12-09T02:03:58.337Z,3.37
2017-12-09T02:04:24.450Z,3.37
2017-12-09T02:04:50.569Z,3.36
2017-12-09T02:05:16.701Z,3.31
2017-12-09T02:05:42.823Z,3.32
2017-12-09T02:06:08.955Z,3.4
2017-12-09T02:06:35.066Z,3.22
2017-12-09T02:07:01.184Z,3.31
2017-12-09T02:07:27.297Z,3.36
2017-12-09T02:07:53.407Z,3.41
2017-12-09T02:08:19.526Z,3.37
2017-12-09T02:08:45.642Z,3.4
2017-12-09T02:09:11.750Z,3.55
2017-12-09T02:09:37.869Z,3.41
2017-12-09T02:10:03.979Z,3.41
2017-12-09T02:10:30.092Z,3.36
2017-12-09T02:10:56.216Z,3.26
2017-12-09T02:11:22.341Z,3.34
2017-12-09T02:11:48.475Z,3.36
2017-12-09T02:12:14.591Z,3.4
2017-12-09T02:12:40.710Z,3.23
2017-12-09T02:13:06.817Z,3.36
2017-12-09T02:13:32.935Z,3.31
2017-12-09T02:13:59.053Z,3.31
2017-12-09T02:14:25.183Z,3.36
2017-12-09T02:14:51.294Z,3.34
2017-12-09T02:15:17.406Z,3.26
2017-12-09T02:15:43.524Z,3.28
2017-12-09T02:16:09.637Z,3.34
2017-12-09T02:16:35.755Z,3.22
2017-12-09T02:17:01.858Z,3.31
2017-12-09T02:17:27.972Z,3.22
2017-12-09T02:17:54.108Z,3.26
2017-12-09T02:18:20.225Z,3.4
2017-12-09T02:18:46.374Z,3.44
2017-12-09T02:19:12.485Z,3.44
2017-12-09T02:19:38.604Z,3.29
2017-12-09T02:20:04.719Z,3.22
2017-12-09T02:20:30.829Z,3.22
2017-12-09T02:20:56.950Z,3.25
2017-12-09T02:21:23.059Z,3.18
2017-12-09T02:21:49.169Z,3.22
2017-12-09T02:22:15.283Z,3.31
2017-12-09T02:22:41.413Z,3.28
2017-12-09T02:23:07.512Z,3.32
2017-12-09T02:23:33.622Z,3.32
2017-12-09T02:23:59.741Z,3.25
2017-12-09T02:24:25.869Z,3.23
2017-12-09T02:24:51.991Z,3.21
2017-12-09T02:25:18.102Z,3.19
2017-12-09T02:25:44.218Z,3.18
2017-12-09T02:26:10.335Z,3.29
2017-12-09T02:26:36.452Z,3.23
2017-12-09T02:27:02.564Z,3.32
2017-12-09T02:27:28.683Z,3.1
2017-12-09T02:27:54.802Z,3.28
2017-12-09T02:28:20.914Z,3.26
2017-12-09T02:28:47.027Z,3.29
2017-12-09T02:29:13.135Z,3.08
2017-12-09T02:29:39.258Z,3.22
2017-12-09T02:30:05.371Z,3.13
2017-12-09T02:30:31.481Z,3.19
2017-12-09T02:30:57.592Z,3.21
2017-12-09T02:31:23.703Z,3.22
2017-12-09T02:31:49.859Z,3.23
2017-12-09T02:32:15.977Z,3.28
2017-12-09T02:32:42.086Z,3.32
2017-12-09T02:33:08.195Z,3.37
2017-12-09T02:33:34.328Z,3.37
2017-12-09T02:34:00.437Z,3.28
2017-12-09T02:34:26.546Z,3.25
2017-12-09T02:34:52.660Z,3.37
2017-12-09T02:35:18.771Z,3.34
2017-12-09T02:35:44.885Z,3.26
2017-12-09T02:36:10.999Z,3.31
2017-12-09T02:36:37.131Z,3.28
2017-12-09T02:37:03.251Z,3.28
2017-12-09T02:37:29.361Z,3.21
2017-12-09T02:37:55.478Z,3.18
2017-12-09T02:38:21.588Z,3.23
2017-12-09T02:38:47.723Z,3.31
2017-12-09T02:39:13.841Z,3.23
2017-12-09T02:39:39.951Z,3.26
2017-12-09T02:40:06.062Z,3.21
2017-12-09T02:40:32.204Z,3.21
2017-12-09T02:40:58.320Z,3.21
2017-12-09T02:41:24.427Z,3.21
2017-12-09T02:41:50.546Z,3.16
2017-12-09T02:42:16.676Z,3.18
2017-12-09T02:42:42.794Z,3.13
2017-12-09T02:43:08.910Z,3.18
2017-12-09T02:43:35.022Z,3.22
2017-12-09T02:44:01.138Z,3.25
2017-12-09T02:44:27.265Z,3.23
2017-12-09T02:44:53.378Z,3.25
2017-12-09T02:45:19.517Z,3.29
2017-12-09T02:45:45.627Z,3.23
2017-12-09T02:46:11.743Z,3.23
2017-12-09T02:46:37.861Z,3.23
2017-12-09T02:47:03.971Z,3.26
2017-12-09T02:47:30.088Z,3.22
2017-12-09T02:47:56.197Z,3.23
2017-12-09T02:48:22.315Z,3.25
2017-12-09T02:48:48.424Z,3.22
2017-12-09T02:49:14.547Z,3.23
2017-12-09T02:49:40.670Z,3.26
2017-12-09T02:50:06.787Z,3.19
2017-12-09T02:50:32.913Z,3.25
2017-12-09T02:50:59.021Z,3.23
2017-12-09T02:51:25.141Z,3.19
2017-12-09T02:51:51.249Z,3.18
2017-12-09T02:52:17.367Z,3.29
2017-12-09T02:52:43.472Z,3.36
2017-12-09T02:53:09.585Z,3.37
2017-12-09T02:53:35.701Z,3.29
2017-12-09T02:54:01.823Z,3.4
2017-12-09T02:54:27.932Z,3.34
2017-12-09T02:54:54.046Z,3.26
2017-12-09T02:55:20.162Z,3.22
2017-12-09T02:55:46.299Z,3.25
2017-12-09T02:56:12.412Z,3.22
2017-12-09T02:56:38.523Z,3.23
2017-12-09T02:57:04.639Z,3.25
2017-12-09T02:57:30.776Z,3.21
2017-12-09T02:57:56.883Z,3.25
2017-12-09T02:58:22.995Z,3.22
2017-12-09T02:58:49.111Z,3.28
2017-12-09T02:59:15.227Z,3.16
2017-12-09T02:59:41.336Z,3.28
2017-12-09T03:00:07.454Z,3.14
2017-12-09T03:00:33.564Z,3.22
2017-12-09T03:00:59.676Z,3.14
2017-12-09T03:01:25.797Z,3.18
2017-12-09T03:01:51.909Z,3.25
2017-12-09T03:02:18.021Z,3.31
2017-12-09T03:02:44.131Z,3.22
2017-12-09T03:03:10.246Z,3.26
2017-12-09T03:03:36.364Z,3.25
2017-12-09T03:04:02.496Z,3.11
2017-12-09T03:04:28.623Z,3.19
2017-12-09T03:04:54.745Z,3.13
2017-12-09T03:05:20.855Z,3.25
2017-12-09T03:05:46.964Z,3.31
2017-12-09T03:06:13.076Z,3.19
2017-12-09T03:06:39.192Z,3.21
2017-12-09T03:07:05.303Z,3.21
2017-12-09T03:07:31.415Z,3.23
2017-12-09T03:07:57.528Z,3.31
2017-12-09T03:08:23.638Z,3.25
2017-12-09T03:08:49.757Z,3.29
2017-12-09T03:09:15.875Z,3.25
2017-12-09T03:09:41.989Z,3.26
2017-12-09T03:10:08.120Z,3.37
2017-12-09T03:10:34.238Z,3.31
2017-12-09T03:11:00.389Z,3.37
2017-12-09T03:11:26.510Z,3.31
2017-12-09T03:11:52.624Z,3.37
2017-12-09T03:12:18.733Z,3.42
2017-12-09T03:12:44.850Z,3.32
2017-12-09T03:13:10.963Z,3.37
2017-12-09T03:13:37.075Z,3.23
2017-12-09T03:14:03.188Z,3.21
2017-12-09T03:14:29.302Z,3.28
2017-12-09T03:14:55.411Z,3.25
2017-12-09T03:15:21.548Z,3.23
2017-12-09T03:15:47.663Z,3.26
2017-12-09T03:16:13.778Z,3.28
2017-12-09T03:16:39.908Z,3.23
2017-12-09T03:17:06.024Z,3.23
2017-12-09T03:17:32.143Z,3.26
2017-12-09T03:17:58.256Z,3.23
2017-12-09T03:18:24.366Z,3.26
2017-12-09T03:18:50.483Z,3.29
2017-12-09T03:19:16.609Z,3.28
2017-12-09T03:19:42.712Z,3.23
2017-12-09T03:20:08.825Z,3.18
2017-12-09T03:20:34.943Z,3.22
2017-12-09T03:21:01.057Z,3.26
2017-12-09T03:21:27.169Z,3.32
2017-12-09T03:21:53.281Z,3.21
2017-12-09T03:22:19.397Z,3.23
2017-12-09T03:22:45.512Z,3.25
2017-12-09T03:23:11.622Z,3.28
2017-12-09T03:23:37.754Z,3.22
2017-12-09T03:24:03.872Z,3.18
2017-12-09T03:24:29.986Z,3.28
2017-12-09T03:24:56.097Z,3.26
2017-12-09T03:25:22.235Z,3.18
2017-12-09T03:25:48.345Z,3.23
2017-12-09T03:26:14.481Z,3.26
2017-12-09T03:26:40.609Z,3.28
2017-12-09T03:27:06.748Z,3.23
2017-12-09T03:27:32.885Z,3.22
2017-12-09T03:27:59.018Z,3.25
2017-12-09T03:28:25.131Z,3.28
2017-12-09T03:28:51.239Z,3.23
2017-12-09T03:29:17.357Z,3.32
2017-12-09T03:29:43.473Z,3.44
2017-12-09T03:30:09.590Z,3.36
2017-12-09T03:30:35.707Z,3.23
2017-12-09T03:31:01.818Z,3.26
2017-12-09T03:31:27.931Z,3.42
2017-12-09T03:31:54.062Z,3.37
2017-12-09T03:32:20.174Z,3.36
2017-12-09T03:32:46.281Z,3.37
2017-12-09T03:33:12.392Z,3.31
2017-12-09T03:33:38.505Z,3.28
2017-12-09T03:34:04.622Z,3.25
2017-12-09T03:34:30.742Z,3.25
2017-12-09T03:34:56.856Z,3.22
2017-12-09T03:35:22.966Z,3.26
2017-12-09T03:35:49.086Z,3.25
2017-12-09T03:36:15.197Z,3.22
2017-12-09T03:36:41.334Z,3.29
2017-12-09T03:37:07.448Z,3.29
2017-12-09T03:37:33.563Z,3.19
2017-12-09T03:37:59.676Z,3.25
2017-12-09T03:38:25.792Z,3.28
2017-12-09T03:38:51.902Z,3.25
2017-12-09T03:39:18.016Z,3.25
2017-12-09T03:39:44.129Z,3.13
2017-12-09T03:40:10.250Z,3.18
2017-12-09T03:40:36.358Z,3.18
2017-12-09T03:41:02.472Z,3.22
2017-12-09T03:41:28.593Z,3.22
2017-12-09T03:41:54.707Z,3.23
2017-12-09T03:42:20.816Z,3.26
2017-12-09T03:42:46.930Z,3.4
2017-12-09T03:43:13.050Z,3.32
2017-12-09T03:43:39.164Z,3.41
2017-12-09T03:44:05.276Z,3.32
2017-12-09T03:44:31.390Z,3.23
2017-12-09T03:44:57.508Z,3.28
2017-12-09T03:45:23.624Z,3.32
2017-12-09T03:45:49.753Z,3.28
2017-12-09T03:46:15.893Z,3.25
2017-12-09T03:46:42.006Z,3.25
2017-12-09T03:47:08.137Z,3.29
2017-12-09T03:47:34.254Z,3.29
2017-12-09T03:48:00.365Z,3.28
2017-12-09T03:48:26.482Z,3.23
2017-12-09T03:48:52.597Z,3.23
2017-12-09T03:49:18.735Z,3.19
2017-12-09T03:49:44.847Z,3.28
2017-12-09T03:50:10.958Z,3.18
2017-12-09T03:50:37.077Z,3.29
2017-12-09T03:51:03.196Z,3.32
2017-12-09T03:51:29.324Z,3.19
2017-12-09T03:51:55.438Z,3.22
2017-12-09T03:52:21.549Z,3.25
2017-12-09T03:52:47.663Z,3.36
2017-12-09T03:53:13.771Z,3.36
2017-12-09T03:53:39.889Z,3.37
2017-12-09T03:54:06.005Z,3.32
2017-12-09T03:54:32.113Z,3.25
2017-12-09T03:54:58.229Z,3.26
2017-12-09T03:55:24.365Z,3.26
2017-12-09T03:55:50.482Z,3.19
2017-12-09T03:56:16.597Z,3.21
2017-12-09T03:56:42.731Z,3.22
2017-12-09T03:57:08.851Z,3.32
2017-12-09T03:57:34.962Z,3.26
2017-12-09T03:58:01.071Z,3.29
2017-12-09T03:58:27.190Z,3.28
2017-12-09T03:58:53.302Z,3.4
2017-12-09T03:59:19.417Z,3.34
2017-12-09T03:59:45.525Z,3.29
2017-12-09T04:00:11.644Z,3.22
2017-12-09T04:00:37.756Z,3.26
2017-12-09T04:01:03.888Z,3.25
2017-12-09T04:01:30.007Z,3.23
2017-12-09T04:01:56.119Z,3.18
2017-12-09T04:02:22.234Z,3.13
2017-12-09T04:02:48.349Z,3.18
2017-12-09T04:03:14.458Z,3.28
2017-12-09T04:03:40.573Z,3.18
2017-12-09T04:04:06.697Z,3.23
2017-12-09T04:04:32.805Z,3.29
2017-12-09T04:04:58.914Z,3.29
2017-12-09T04:05:25.031Z,3.23
2017-12-09T04:05:51.151Z,3.25
2017-12-09T04:06:17.254Z,3.29
2017-12-09T04:06:43.371Z,3.25
2017-12-09T04:07:09.484Z,3.19
2017-12-09T04:07:35.618Z,3.26
2017-12-09T04:08:01.728Z,3.18
2017-12-09T04:08:27.845Z,3.28
2017-12-09T04:08:53.957Z,3.18
2017-12-09T04:09:20.079Z,3.25
2017-12-09T04:09:46.184Z,3.25
2017-12-09T04:10:12.299Z,3.28
2017-12-09T04:10:38.427Z,3.25
2017-12-09T04:11:04.569Z,3.16
2017-12-09T04:11:30.681Z,3.25
2017-12-09T04:11:56.812Z,3.31
2017-12-09T04:12:22.945Z,3.22
2017-12-09T04:12:49.057Z,3.25
2017-12-09T04:13:15.171Z,3.21
2017-12-09T04:13:41.280Z,3.18
2017-12-09T04:14:07.395Z,3.11
2017-12-09T04:14:33.511Z,3.05
2017-12-09T04:14:59.627Z,3.05
2017-12-09T04:15:25.737Z,3
2017-12-09T04:15:51.858Z,3.07
2017-12-09T04:16:17.971Z,3.07
2017-12-09T04:16:44.082Z,3.1
2017-12-09T04:17:10.222Z,3.07
2017-12-09T04:17:36.325Z,3.07
2017-12-09T04:18:02.444Z,3.16
2017-12-09T04:18:28.553Z,3.1
2017-12-09T04:18:54.669Z,3.05
2017-12-09T04:19:20.810Z,3.03
2017-12-09T04:19:46.921Z,3.16
2017-12-09T04:20:13.037Z,3.14
2017-12-09T04:20:39.147Z,3.18
2017-12-09T04:21:05.257Z,3.14
2017-12-09T04:21:31.384Z,3.14
2017-12-09T04:21:57.498Z,3.13
2017-12-09T04:22:23.606Z,3.28
2017-12-09T04:22:49.725Z,3.28
2017-12-09T04:23:15.840Z,3.22
2017-12-09T04:23:41.954Z,3.14
2017-12-09T04:24:08.063Z,3.04
2017-12-09T04:24:34.188Z,3.03
2017-12-09T04:25:00.313Z,3.07
2017-12-09T04:25:26.432Z,3.1
2017-12-09T04:25:52.543Z,3.01
2017-12-09T04:26:18.676Z,3
2017-12-09T04:26:44.792Z,3.07
2017-12-09T04:27:10.902Z,3.08
2017-12-09T04:27:37.016Z,3.07
2017-12-09T04:28:03.136Z,2.98
2017-12-09T04:28:29.248Z,3.04
2017-12-09T04:28:55.363Z,3.1
2017-12-09T04:29:21.473Z,3.18
2017-12-09T04:29:47.590Z,3.14
2017-12-09T04:30:13.698Z,3.18
2017-12-09T04:30:39.820Z,3.25
2017-12-09T04:31:05.934Z,3.21
2017-12-09T04:31:32.043Z,3.16
2017-12-09T04:31:58.164Z,3.11
2017-12-09T04:32:24.278Z,3.1
2017-12-09T04:32:50.387Z,3.14
2017-12-09T04:33:16.502Z,3.08
2017-12-09T04:33:42.612Z,3.14
2017-12-09T04:34:08.725Z,3.13
2017-12-09T04:34:34.845Z,3.19
2017-12-09T04:35:00.952Z,3.1
2017-12-09T04:35:27.073Z,3.21
2017-12-09T04:35:53.209Z,3.21
2017-12-09T04:36:19.343Z,3.13
2017-12-09T04:36:45.454Z,3.21
2017-12-09T04:37:11.606Z,3.18
2017-12-09T04:37:37.721Z,3.18
2017-12-09T04:38:03.829Z,3.1
2017-12-09T04:38:29.947Z,3.1
2017-12-09T04:38:56.055Z,3.18
2017-12-09T04:39:22.174Z,3.22
2017-12-09T04:39:48.284Z,3.21
2017-12-09T04:40:14.405Z,3.19
2017-12-09T04:40:40.518Z,3.25
2017-12-09T04:41:06.626Z,3.23
2017-12-09T04:41:32.744Z,3.22
2017-12-09T04:41:58.868Z,3.23
2017-12-09T04:42:24.979Z,3.22
2017-12-09T04:42:51.093Z,3.21
2017-12-09T04:43:17.203Z,3.23
2017-12-09T04:43:43.316Z,3.22
2017-12-09T04:44:09.436Z,3.32
2017-12-09T04:44:35.571Z,3.26
2017-12-09T04:45:01.685Z,3.25
2017-12-09T04:45:27.792Z,3.23
2017-12-09T04:45:53.911Z,3.28
2017-12-09T04:46:20.026Z,3.29
2017-12-09T04:46:46.134Z,3.29
2017-12-09T04:47:12.247Z,3.22
2017-12-09T04:47:38.363Z,3.32
2017-12-09T04:48:04.481Z,3.31
2017-12-09T04:48:30.590Z,3.28
2017-12-09T04:48:56.705Z,3.37
2017-12-09T04:49:22.844Z,3.22
2017-12-09T04:49:48.963Z,3.32
2017-12-09T04:50:15.072Z,3.26
2017-12-09T04:50:41.191Z,3.28
2017-12-09T04:51:07.305Z,3.25
2017-12-09T04:51:33.413Z,3.23
2017-12-09T04:51:59.531Z,3.22
2017-12-09T04:52:25.661Z,3.25
2017-12-09T04:52:51.776Z,3.22
2017-12-09T04:53:17.885Z,3.29
2017-12-09T04:53:44.004Z,3.21
2017-12-09T04:54:10.120Z,3.25
2017-12-09T04:54:36.237Z,3.18
2017-12-09T04:55:02.354Z,3.19
2017-12-09T04:55:28.465Z,3.18
2017-12-09T04:55:54.582Z,3.13
2017-12-09T04:56:20.713Z,3.18
2017-12-09T04:56:46.822Z,3.21
2017-12-09T04:57:12.934Z,3.23
2017-12-09T04:57:39.048Z,3.25
2017-12-09T04:58:05.170Z,3.25
2017-12-09T04:58:31.279Z,3.26
2017-12-09T04:58:57.391Z,3.25
2017-12-09T04:59:23.506Z,3.36
2017-12-09T04:59:49.619Z,3.31
2017-12-09T05:00:15.730Z,3.28
2017-12-09T05:00:41.847Z,3.22
2017-12-09T05:01:07.965Z,3.22
2017-12-09T05:01:34.080Z,3.26
2017-12-09T05:02:00.192Z,3.32
2017-12-09T05:02:26.305Z,3.18
2017-12-09T05:02:52.419Z,3.19
2017-12-09T05:03:18.528Z,3.26
2017-12-09T05:03:44.646Z,3.16
2017-12-09T05:04:10.778Z,3.18
2017-12-09T05:04:36.897Z,3.19
2017-12-09T05:05:03.011Z,3.16
2017-12-09T05:05:29.127Z,3.18
2017-12-09T05:05:55.238Z,3.1
2017-12-09T05:06:21.357Z,3.11
2017-12-09T05:06:47.495Z,3.04
2017-12-09T05:07:13.605Z,3.08
2017-12-09T05:07:39.715Z,3.11
2017-12-09T05:08:05.828Z,3.19
2017-12-09T05:08:31.945Z,3.21
2017-12-09T05:08:58.062Z,3.25
2017-12-09T05:09:24.179Z,3.19
2017-12-09T05:09:50.291Z,3.07
2017-12-09T05:10:16.406Z,3.21
2017-12-09T05:10:42.517Z,3.18
2017-12-09T05:11:08.635Z,3.25
2017-12-09T05:11:34.745Z,3.13
2017-12-09T05:12:00.857Z,3.11
2017-12-09T05:12:26.978Z,3.14
2017-12-09T05:12:53.090Z,3.08
2017-12-09T05:13:19.200Z,3.07
2017-12-09T05:13:45.313Z,3.1
2017-12-09T05:14:11.431Z,3.04
2017-12-09T05:14:37.548Z,3.05
2017-12-09T05:15:03.659Z,3.18
2017-12-09T05:15:29.796Z,3.21
2017-12-09T05:15:55.914Z,3.21
2017-12-09T05:16:22.027Z,3.19
2017-12-09T05:16:48.141Z,3.19
2017-12-09T05:17:14.253Z,3.14
2017-12-09T05:17:40.367Z,3.11
2017-12-09T05:18:06.487Z,3.18
2017-12-09T05:18:32.602Z,3.26
2017-12-09T05:18:58.713Z,3.21
2017-12-09T05:19:24.823Z,3.32
2017-12-09T05:19:50.941Z,3.23
2017-12-09T05:20:17.049Z,3.22
2017-12-09T05:20:43.167Z,3.21
2017-12-09T05:21:09.276Z,3.23
2017-12-09T05:21:35.413Z,3.18
2017-12-09T05:22:01.522Z,3.21
2017-12-09T05:22:27.663Z,3.16
2017-12-09T05:22:53.778Z,3.21
2017-12-09T05:23:19.888Z,3.19
2017-12-09T05:23:46.006Z,3.19
2017-12-09T05:24:12.137Z,3.21
2017-12-09T05:24:38.256Z,3.23
2017-12-09T05:25:04.366Z,3.29
2017-12-09T05:25:30.479Z,3.22
2017-12-09T05:25:56.598Z,3.25
2017-12-09T05:26:22.707Z,3.28
2017-12-09T05:26:48.827Z,3.25
2017-12-09T05:27:14.942Z,3.26
2017-12-09T05:27:41.051Z,3.21
2017-12-09T05:28:07.170Z,3.28
2017-12-09T05:28:33.278Z,3.29
2017-12-09T05:28:59.394Z,3.29
2017-12-09T05:29:25.510Z,3.23
2017-12-09T05:29:51.629Z,3.16
2017-12-09T05:30:17.759Z,3.21
2017-12-09T05:30:43.871Z,3.23
2017-12-09T05:31:09.987Z,3.29
2017-12-09T05:31:36.106Z,3.26
2017-12-09T05:32:02.218Z,3.25
2017-12-09T05:32:28.328Z,3.26
2017-12-09T05:32:54.440Z,3.28
2017-12-09T05:33:20.558Z,3.19
2017-12-09T05:33:46.671Z,3.31
2017-12-09T05:34:12.783Z,3.29
2017-12-09T05:34:38.900Z,3.28
2017-12-09T05:35:05.010Z,3.22
2017-12-09T05:35:31.126Z,3.25
2017-12-09T05:35:57.280Z,3.19
2017-12-09T05:36:23.398Z,3.26
2017-12-09T05:36:49.513Z,3.28
2017-12-09T05:37:15.625Z,3.23
2017-12-09T05:37:41.741Z,3.22
2017-12-09T05:38:07.847Z,3.29
2017-12-09T05:38:33.978Z,3.23
2017-12-09T05:39:00.097Z,3.29
2017-12-09T05:39:26.217Z,3.18
2017-12-09T05:39:52.350Z,3.22
2017-12-09T05:40:18.463Z,3.23
2017-12-09T05:40:44.618Z,3.19
2017-12-09T05:41:10.694Z,3.21
2017-12-09T05:41:36.803Z,3.25
2017-12-09T05:42:02.919Z,3.26
2017-12-09T05:42:29.028Z,3.18
2017-12-09T05:42:55.142Z,3.32
2017-12-09T05:43:21.286Z,3.29
2017-12-09T05:43:47.400Z,3.29
2017-12-09T05:44:13.508Z,3.4
2017-12-09T05:44:39.620Z,3.37
2017-12-09T05:45:05.740Z,3.32
2017-12-09T05:45:31.869Z,3.28
2017-12-09T05:45:57.987Z,3.29
2017-12-09T05:46:24.100Z,3.26
2017-12-09T05:46:50.213Z,3.31
2017-12-09T05:47:16.329Z,3.28
2017-12-09T05:47:42.457Z,3.25
2017-12-09T05:48:08.595Z,3.25
2017-12-09T05:48:34.727Z,3.36